sensor_id;sensor_type;location;lat;lon;timestamp;pressure;altitude;pressure_sealevel;temperature;humidity
57024;BME280;42916;54.346;18.562;2023-02-28T00:01:28;101966.34;;;-5.72;91.36
57024;BME280;42916;54.346;18.562;2023-02-28T00:03:55;101967.78;;;-5.75;91.49
57024;BME280;42916;54.346;18.562;2023-02-28T00:06:23;101970.19;;;-5.77;91.19
57024;BME280;42916;54.346;18.562;2023-02-28T00:08:51;101973.61;;;-5.77;91.31
57024;BME280;42916;54.346;18.562;2023-02-28T00:11:18;101968.90;;;-5.78;91.17
57024;BME280;42916;54.346;18.562;2023-02-28T00:13:46;101967.09;;;-5.78;91.11
57024;BME280;42916;54.346;18.562;2023-02-28T00:16:17;101966.04;;;-5.80;91.26
57024;BME280;42916;54.346;18.562;2023-02-28T00:18:45;101970.05;;;-5.82;91.52
57024;BME280;42916;54.346;18.562;2023-02-28T00:21:13;101974.96;;;-5.84;91.40
57024;BME280;42916;54.346;18.562;2023-02-28T00:23:40;101975.20;;;-5.88;91.70
57024;BME280;42916;54.346;18.562;2023-02-28T00:26:08;101978.09;;;-5.89;91.86
57024;BME280;42916;54.346;18.562;2023-02-28T00:28:35;101978.80;;;-5.88;91.82
57024;BME280;42916;54.346;18.562;2023-02-28T00:31:02;101984.20;;;-5.87;91.90
57024;BME280;42916;54.346;18.562;2023-02-28T00:33:29;101980.20;;;-5.86;91.64
57024;BME280;42916;54.346;18.562;2023-02-28T00:36:08;101984.45;;;-5.86;91.56
57024;BME280;42916;54.346;18.562;2023-02-28T00:38:37;101988.62;;;-5.82;91.71
57024;BME280;42916;54.346;18.562;2023-02-28T00:41:04;101989.52;;;-5.80;91.97
57024;BME280;42916;54.346;18.562;2023-02-28T00:43:32;101991.01;;;-5.79;92.10
57024;BME280;42916;54.346;18.562;2023-02-28T00:46:00;101994.85;;;-5.78;92.12
57024;BME280;42916;54.346;18.562;2023-02-28T00:48:27;101992.41;;;-5.81;92.33
57024;BME280;42916;54.346;18.562;2023-02-28T00:50:55;101993.84;;;-5.86;92.41
57024;BME280;42916;54.346;18.562;2023-02-28T00:53:22;101991.98;;;-5.90;92.08
57024;BME280;42916;54.346;18.562;2023-02-28T00:55:50;101994.63;;;-5.92;92.01
57024;BME280;42916;54.346;18.562;2023-02-28T00:58:17;101995.33;;;-5.93;92.20
57024;BME280;42916;54.346;18.562;2023-02-28T01:00:44;101994.21;;;-5.92;92.45
57024;BME280;42916;54.346;18.562;2023-02-28T01:03:17;101992.90;;;-5.91;92.43
57024;BME280;42916;54.346;18.562;2023-02-28T01:05:44;101994.75;;;-5.92;92.48
57024;BME280;42916;54.346;18.562;2023-02-28T01:08:12;101996.05;;;-5.93;92.43
57024;BME280;42916;54.346;18.562;2023-02-28T01:10:40;101996.11;;;-5.93;92.44
57024;BME280;42916;54.346;18.562;2023-02-28T01:13:08;101996.89;;;-5.94;92.43
57024;BME280;42916;54.346;18.562;2023-02-28T01:15:40;101992.90;;;-5.95;92.42
57024;BME280;42916;54.346;18.562;2023-02-28T01:18:09;101989.12;;;-5.96;92.33
57024;BME280;42916;54.346;18.562;2023-02-28T01:20:37;101988.86;;;-5.96;92.40
57024;BME280;42916;54.346;18.562;2023-02-28T01:23:04;101994.03;;;-5.94;92.41
57024;BME280;42916;54.346;18.562;2023-02-28T01:25:34;101993.59;;;-5.95;92.41
57024;BME280;42916;54.346;18.562;2023-02-28T01:28:03;101990.60;;;-6.00;92.39
57024;BME280;42916;54.346;18.562;2023-02-28T01:30:31;101986.16;;;-6.05;92.39
57024;BME280;42916;54.346;18.562;2023-02-28T01:32:58;101984.20;;;-6.10;92.41
57024;BME280;42916;54.346;18.562;2023-02-28T01:35:25;101979.77;;;-6.14;92.54
57024;BME280;42916;54.346;18.562;2023-02-28T01:37:52;101982.33;;;-6.18;92.55
57024;BME280;42916;54.346;18.562;2023-02-28T01:40:19;101981.15;;;-6.19;92.40
57024;BME280;42916;54.346;18.562;2023-02-28T01:42:46;101978.25;;;-6.20;92.26
57024;BME280;42916;54.346;18.562;2023-02-28T01:45:37;101977.52;;;-6.23;92.30
57024;BME280;42916;54.346;18.562;2023-02-28T01:48:07;101975.61;;;-6.23;92.50
57024;BME280;42916;54.346;18.562;2023-02-28T01:50:38;101972.34;;;-6.24;92.43
57024;BME280;42916;54.346;18.562;2023-02-28T01:53:07;101968.73;;;-6.28;92.38
57024;BME280;42916;54.346;18.562;2023-02-28T01:55:37;101969.48;;;-6.31;92.44
57024;BME280;42916;54.346;18.562;2023-02-28T01:58:06;101976.16;;;-6.36;92.31
57024;BME280;42916;54.346;18.562;2023-02-28T02:00:33;101974.35;;;-6.40;92.40
57024;BME280;42916;54.346;18.562;2023-02-28T02:03:06;101969.35;;;-6.45;92.66
57024;BME280;42916;54.346;18.562;2023-02-28T02:05:37;101965.77;;;-6.50;92.50
57024;BME280;42916;54.346;18.562;2023-02-28T02:08:19;101962.76;;;-6.52;92.50
57024;BME280;42916;54.346;18.562;2023-02-28T02:10:50;101958.23;;;-6.53;92.46
57024;BME280;42916;54.346;18.562;2023-02-28T02:24:37;101966.27;;;-6.57;92.95
57024;BME280;42916;54.346;18.562;2023-02-28T02:28:34;101976.05;;;-6.60;92.88
57024;BME280;42916;54.346;18.562;2023-02-28T02:30:43;101977.31;;;-6.64;93.04
57024;BME280;42916;54.346;18.562;2023-02-28T02:36:33;101979.77;;;-6.61;93.30
57024;BME280;42916;54.346;18.562;2023-02-28T02:39:17;101978.82;;;-6.57;93.33
57024;BME280;42916;54.346;18.562;2023-02-28T02:41:50;101979.73;;;-6.53;93.60
57024;BME280;42916;54.346;18.562;2023-02-28T02:44:21;101983.10;;;-6.48;93.80
57024;BME280;42916;54.346;18.562;2023-02-28T02:46:54;101977.12;;;-6.45;93.76
57024;BME280;42916;54.346;18.562;2023-02-28T02:49:27;101980.52;;;-6.46;93.87
57024;BME280;42916;54.346;18.562;2023-02-28T02:51:57;101977.80;;;-6.47;93.75
57024;BME280;42916;54.346;18.562;2023-02-28T02:54:33;101983.31;;;-6.48;93.87
57024;BME280;42916;54.346;18.562;2023-02-28T02:57:04;101982.13;;;-6.49;93.82
57024;BME280;42916;54.346;18.562;2023-02-28T02:59:33;101984.46;;;-6.49;94.00
57024;BME280;42916;54.346;18.562;2023-02-28T03:02:04;101988.13;;;-6.51;93.83
57024;BME280;42916;54.346;18.562;2023-02-28T03:04:39;101988.51;;;-6.52;93.60
57024;BME280;42916;54.346;18.562;2023-02-28T03:07:09;101995.14;;;-6.50;93.57
57024;BME280;42916;54.346;18.562;2023-02-28T03:09:36;101997.71;;;-6.50;93.77
57024;BME280;42916;54.346;18.562;2023-02-28T03:12:03;101995.60;;;-6.47;93.85
57024;BME280;42916;54.346;18.562;2023-02-28T03:15:03;101992.38;;;-6.46;93.82
57024;BME280;42916;54.346;18.562;2023-02-28T03:18:00;101993.86;;;-6.50;93.66
57024;BME280;42916;54.346;18.562;2023-02-28T03:20:42;101994.21;;;-6.53;93.80
57024;BME280;42916;54.346;18.562;2023-02-28T03:26:21;101999.95;;;-6.62;93.71
57024;BME280;42916;54.346;18.562;2023-02-28T03:29:02;101996.74;;;-6.67;93.62
57024;BME280;42916;54.346;18.562;2023-02-28T03:31:34;101996.59;;;-6.67;93.52
57024;BME280;42916;54.346;18.562;2023-02-28T03:34:11;101993.48;;;-6.70;93.42
57024;BME280;42916;54.346;18.562;2023-02-28T03:36:48;101998.19;;;-6.72;93.23
57024;BME280;42916;54.346;18.562;2023-02-28T03:39:18;101995.13;;;-6.74;93.48
57024;BME280;42916;54.346;18.562;2023-02-28T03:42:07;102000.02;;;-6.75;93.52
57024;BME280;42916;54.346;18.562;2023-02-28T03:44:52;101999.64;;;-6.78;93.75
57024;BME280;42916;54.346;18.562;2023-02-28T03:47:34;102000.27;;;-6.80;93.98
57024;BME280;42916;54.346;18.562;2023-02-28T03:50:19;101999.48;;;-6.81;93.96
57024;BME280;42916;54.346;18.562;2023-02-28T03:52:57;101997.05;;;-6.82;93.81
57024;BME280;42916;54.346;18.562;2023-02-28T03:55:36;101992.86;;;-6.82;93.51
57024;BME280;42916;54.346;18.562;2023-02-28T03:58:11;101986.77;;;-6.84;93.61
57024;BME280;42916;54.346;18.562;2023-02-28T04:00:53;101986.66;;;-6.85;93.65
57024;BME280;42916;54.346;18.562;2023-02-28T04:03:22;101988.55;;;-6.86;93.80
57024;BME280;42916;54.346;18.562;2023-02-28T04:05:54;101989.92;;;-6.88;93.76
57024;BME280;42916;54.346;18.562;2023-02-28T04:08:22;101988.73;;;-6.92;93.76
57024;BME280;42916;54.346;18.562;2023-02-28T04:11:03;101986.48;;;-6.95;93.80
57024;BME280;42916;54.346;18.562;2023-02-28T04:13:31;101986.36;;;-6.99;93.80
57024;BME280;42916;54.346;18.562;2023-02-28T04:15:58;101988.72;;;-7.03;93.86
57024;BME280;42916;54.346;18.562;2023-02-28T04:18:25;101992.77;;;-7.05;93.92
57024;BME280;42916;54.346;18.562;2023-02-28T04:20:52;101992.85;;;-7.06;93.96
57024;BME280;42916;54.346;18.562;2023-02-28T04:23:18;101999.05;;;-7.06;93.75
57024;BME280;42916;54.346;18.562;2023-02-28T04:25:45;101997.80;;;-7.06;93.92
57024;BME280;42916;54.346;18.562;2023-02-28T04:28:12;101993.02;;;-7.06;93.69
57024;BME280;42916;54.346;18.562;2023-02-28T04:30:39;101992.48;;;-7.06;93.58
57024;BME280;42916;54.346;18.562;2023-02-28T04:33:06;101996.65;;;-7.05;93.78
57024;BME280;42916;54.346;18.562;2023-02-28T04:35:33;101995.85;;;-7.04;93.79
57024;BME280;42916;54.346;18.562;2023-02-28T04:38:00;101993.79;;;-7.02;93.93
57024;BME280;42916;54.346;18.562;2023-02-28T04:40:27;101988.89;;;-6.99;93.88
57024;BME280;42916;54.346;18.562;2023-02-28T04:42:54;101986.35;;;-6.98;94.04
57024;BME280;42916;54.346;18.562;2023-02-28T04:45:21;101982.79;;;-6.98;94.00
57024;BME280;42916;54.346;18.562;2023-02-28T04:47:48;101980.80;;;-6.97;94.20
57024;BME280;42916;54.346;18.562;2023-02-28T04:50:15;101979.48;;;-6.96;94.28
57024;BME280;42916;54.346;18.562;2023-02-28T04:52:42;101981.42;;;-6.93;94.45
57024;BME280;42916;54.346;18.562;2023-02-28T04:55:09;101983.13;;;-6.92;94.42
57024;BME280;42916;54.346;18.562;2023-02-28T04:57:37;101981.45;;;-6.91;94.46
57024;BME280;42916;54.346;18.562;2023-02-28T05:00:04;101985.74;;;-6.90;94.52
57024;BME280;42916;54.346;18.562;2023-02-28T05:02:34;101986.27;;;-6.90;94.51
57024;BME280;42916;54.346;18.562;2023-02-28T05:05:01;101984.79;;;-6.91;94.56
57024;BME280;42916;54.346;18.562;2023-02-28T05:07:28;101987.70;;;-6.92;94.43
57024;BME280;42916;54.346;18.562;2023-02-28T05:09:54;101992.88;;;-6.93;94.44
57024;BME280;42916;54.346;18.562;2023-02-28T05:12:21;101988.77;;;-6.95;94.28
57024;BME280;42916;54.346;18.562;2023-02-28T05:14:48;101988.48;;;-6.96;94.37
57024;BME280;42916;54.346;18.562;2023-02-28T05:17:15;101986.45;;;-6.97;94.49
57024;BME280;42916;54.346;18.562;2023-02-28T05:19:42;101985.60;;;-6.98;94.57
57024;BME280;42916;54.346;18.562;2023-02-28T05:22:14;101984.76;;;-6.98;94.58
57024;BME280;42916;54.346;18.562;2023-02-28T05:24:43;101982.86;;;-6.96;94.66
57024;BME280;42916;54.346;18.562;2023-02-28T05:27:10;101982.06;;;-6.95;94.83
57024;BME280;42916;54.346;18.562;2023-02-28T05:29:37;101985.86;;;-6.93;94.95
57024;BME280;42916;54.346;18.562;2023-02-28T05:32:10;101985.88;;;-6.91;94.92
57024;BME280;42916;54.346;18.562;2023-02-28T05:34:38;101983.88;;;-6.90;94.86
57024;BME280;42916;54.346;18.562;2023-02-28T05:37:11;101978.42;;;-6.88;95.18
57024;BME280;42916;54.346;18.562;2023-02-28T05:39:38;101982.77;;;-6.85;94.98
57024;BME280;42916;54.346;18.562;2023-02-28T05:42:06;101979.41;;;-6.85;94.82
57024;BME280;42916;54.346;18.562;2023-02-28T05:44:33;101974.98;;;-6.84;94.97
57024;BME280;42916;54.346;18.562;2023-02-28T05:47:00;101975.02;;;-6.82;94.95
57024;BME280;42916;54.346;18.562;2023-02-28T05:49:28;101980.52;;;-6.80;94.96
57024;BME280;42916;54.346;18.562;2023-02-28T05:51:55;101981.89;;;-6.76;95.21
57024;BME280;42916;54.346;18.562;2023-02-28T05:54:22;101973.05;;;-6.71;95.25
57024;BME280;42916;54.346;18.562;2023-02-28T05:56:49;101967.92;;;-6.66;95.44
57024;BME280;42916;54.346;18.562;2023-02-28T05:59:16;101971.17;;;-6.62;95.36
57024;BME280;42916;54.346;18.562;2023-02-28T06:01:44;101971.02;;;-6.57;95.36
57024;BME280;42916;54.346;18.562;2023-02-28T06:04:17;101973.27;;;-6.51;95.40
57024;BME280;42916;54.346;18.562;2023-02-28T06:06:46;101971.63;;;-6.47;95.41
57024;BME280;42916;54.346;18.562;2023-02-28T06:09:14;101975.30;;;-6.44;95.38
57024;BME280;42916;54.346;18.562;2023-02-28T06:11:41;101977.28;;;-6.37;95.65
57024;BME280;42916;54.346;18.562;2023-02-28T06:14:14;101972.83;;;-6.29;95.76
57024;BME280;42916;54.346;18.562;2023-02-28T06:16:42;101977.19;;;-6.23;95.68
57024;BME280;42916;54.346;18.562;2023-02-28T06:19:10;101981.14;;;-6.16;95.67
57024;BME280;42916;54.346;18.562;2023-02-28T06:21:37;101983.07;;;-6.09;95.79
57024;BME280;42916;54.346;18.562;2023-02-28T06:24:04;101983.86;;;-6.02;95.70
57024;BME280;42916;54.346;18.562;2023-02-28T06:26:32;101979.17;;;-5.94;96.02
57024;BME280;42916;54.346;18.562;2023-02-28T06:28:59;101973.11;;;-5.85;96.14
57024;BME280;42916;54.346;18.562;2023-02-28T06:31:27;101978.73;;;-5.75;96.13
57024;BME280;42916;54.346;18.562;2023-02-28T06:33:55;101982.92;;;-5.62;96.35
57024;BME280;42916;54.346;18.562;2023-02-28T06:36:23;101983.05;;;-5.37;96.69
57024;BME280;42916;54.346;18.562;2023-02-28T06:38:50;101981.91;;;-5.16;96.77
57024;BME280;42916;54.346;18.562;2023-02-28T06:41:23;101981.99;;;-5.03;96.19
57024;BME280;42916;54.346;18.562;2023-02-28T06:43:50;101977.74;;;-4.89;96.40
57024;BME280;42916;54.346;18.562;2023-02-28T06:46:17;101978.46;;;-4.80;95.67
57024;BME280;42916;54.346;18.562;2023-02-28T06:48:45;101977.30;;;-4.71;95.46
57024;BME280;42916;54.346;18.562;2023-02-28T06:51:19;101974.73;;;-4.63;95.39
57024;BME280;42916;54.346;18.562;2023-02-28T06:53:50;101978.29;;;-4.56;95.39
57024;BME280;42916;54.346;18.562;2023-02-28T06:56:18;101975.03;;;-4.48;95.42
57024;BME280;42916;54.346;18.562;2023-02-28T06:58:50;101970.55;;;-4.41;95.29
57024;BME280;42916;54.346;18.562;2023-02-28T07:01:19;101973.14;;;-4.31;95.28
57024;BME280;42916;54.346;18.562;2023-02-28T07:03:46;101972.85;;;-4.22;95.26
57024;BME280;42916;54.346;18.562;2023-02-28T07:06:22;101976.83;;;-4.14;95.22
57024;BME280;42916;54.346;18.562;2023-02-28T07:08:52;101977.18;;;-4.05;95.29
57024;BME280;42916;54.346;18.562;2023-02-28T07:11:21;101977.02;;;-3.96;95.11
57024;BME280;42916;54.346;18.562;2023-02-28T07:13:49;101978.38;;;-3.89;95.03
57024;BME280;42916;54.346;18.562;2023-02-28T07:16:18;101982.73;;;-3.81;95.16
57024;BME280;42916;54.346;18.562;2023-02-28T07:18:44;101979.96;;;-3.73;95.15
57024;BME280;42916;54.346;18.562;2023-02-28T07:21:12;101980.12;;;-3.64;95.09
57024;BME280;42916;54.346;18.562;2023-02-28T07:23:39;101979.86;;;-3.54;95.01
57024;BME280;42916;54.346;18.562;2023-02-28T07:26:07;101984.48;;;-3.46;94.85
57024;BME280;42916;54.346;18.562;2023-02-28T07:28:37;101985.38;;;-3.34;94.56
57024;BME280;42916;54.346;18.562;2023-02-28T07:31:05;101984.48;;;-3.26;94.27
57024;BME280;42916;54.346;18.562;2023-02-28T07:33:33;101985.79;;;-3.15;94.17
57024;BME280;42916;54.346;18.562;2023-02-28T07:36:02;101987.11;;;-3.06;94.30
57024;BME280;42916;54.346;18.562;2023-02-28T07:38:30;101991.50;;;-2.96;94.22
57024;BME280;42916;54.346;18.562;2023-02-28T07:40:56;101986.02;;;-2.88;94.05
57024;BME280;42916;54.346;18.562;2023-02-28T07:43:24;101988.45;;;-2.83;93.70
57024;BME280;42916;54.346;18.562;2023-02-28T07:45:50;101989.41;;;-2.78;93.57
57024;BME280;42916;54.346;18.562;2023-02-28T07:48:17;101988.73;;;-2.70;93.74
57024;BME280;42916;54.346;18.562;2023-02-28T07:50:44;101993.13;;;-2.59;94.14
57024;BME280;42916;54.346;18.562;2023-02-28T07:53:14;101994.35;;;-2.46;94.11
57024;BME280;42916;54.346;18.562;2023-02-28T07:55:44;101993.70;;;-2.32;94.10
57024;BME280;42916;54.346;18.562;2023-02-28T07:58:11;101989.67;;;-2.16;93.83
57024;BME280;42916;54.346;18.562;2023-02-28T08:00:38;101992.23;;;-2.00;93.53
57024;BME280;42916;54.346;18.562;2023-02-28T08:03:05;101995.85;;;-1.87;93.06
57024;BME280;42916;54.346;18.562;2023-02-28T08:05:32;101997.40;;;-1.74;93.00
57024;BME280;42916;54.346;18.562;2023-02-28T08:07:59;101990.46;;;-1.62;92.78
57024;BME280;42916;54.346;18.562;2023-02-28T08:10:26;101984.84;;;-1.48;92.63
57024;BME280;42916;54.346;18.562;2023-02-28T08:12:53;101988.38;;;-1.36;92.15
57024;BME280;42916;54.346;18.562;2023-02-28T08:15:20;101984.91;;;-1.26;91.87
57024;BME280;42916;54.346;18.562;2023-02-28T08:17:46;101984.40;;;-1.14;91.86
57024;BME280;42916;54.346;18.562;2023-02-28T08:20:13;101980.60;;;-1.04;91.26
57024;BME280;42916;54.346;18.562;2023-02-28T08:22:40;101973.77;;;-0.91;91.00
57024;BME280;42916;54.346;18.562;2023-02-28T08:25:08;101972.19;;;-0.78;90.80
57024;BME280;42916;54.346;18.562;2023-02-28T08:27:36;101970.73;;;-0.66;90.45
57024;BME280;42916;54.346;18.562;2023-02-28T08:30:03;101969.36;;;-0.55;90.37
57024;BME280;42916;54.346;18.562;2023-02-28T08:32:32;101966.66;;;-0.45;90.22
57024;BME280;42916;54.346;18.562;2023-02-28T08:34:59;101969.08;;;-0.36;89.73
57024;BME280;42916;54.346;18.562;2023-02-28T08:37:26;101963.30;;;-0.30;88.82
57024;BME280;42916;54.346;18.562;2023-02-28T08:39:53;101962.23;;;-0.24;87.61
57024;BME280;42916;54.346;18.562;2023-02-28T08:42:20;101959.04;;;-0.19;86.69
57024;BME280;42916;54.346;18.562;2023-02-28T08:44:47;101956.94;;;-0.13;85.90
57024;BME280;42916;54.346;18.562;2023-02-28T08:47:14;101955.24;;;-0.05;85.72
57024;BME280;42916;54.346;18.562;2023-02-28T08:49:41;101954.30;;;0.03;84.81
57024;BME280;42916;54.346;18.562;2023-02-28T08:52:08;101952.61;;;0.06;84.20
57024;BME280;42916;54.346;18.562;2023-02-28T08:54:35;101960.98;;;0.10;83.60
57024;BME280;42916;54.346;18.562;2023-02-28T08:57:03;101969.45;;;0.12;82.35
57024;BME280;42916;54.346;18.562;2023-02-28T08:59:30;101968.39;;;0.16;82.52
57024;BME280;42916;54.346;18.562;2023-02-28T09:01:57;101966.48;;;0.21;82.34
57024;BME280;42916;54.346;18.562;2023-02-28T09:04:24;101970.84;;;0.27;82.16
57024;BME280;42916;54.346;18.562;2023-02-28T09:06:51;101970.71;;;0.32;81.62
57024;BME280;42916;54.346;18.562;2023-02-28T09:09:18;101976.55;;;0.41;81.96
57024;BME280;42916;54.346;18.562;2023-02-28T09:11:45;101971.54;;;0.46;81.63
57024;BME280;42916;54.346;18.562;2023-02-28T09:14:12;101973.15;;;0.53;81.43
57024;BME280;42916;54.346;18.562;2023-02-28T09:16:39;101976.43;;;0.60;80.51
57024;BME280;42916;54.346;18.562;2023-02-28T09:19:06;101984.35;;;0.61;79.71
57024;BME280;42916;54.346;18.562;2023-02-28T09:21:32;101979.91;;;0.63;79.87
57024;BME280;42916;54.346;18.562;2023-02-28T09:23:59;101975.84;;;0.70;80.74
57024;BME280;42916;54.346;18.562;2023-02-28T09:26:27;101981.13;;;0.80;81.01
57024;BME280;42916;54.346;18.562;2023-02-28T09:28:55;101980.42;;;0.87;80.35
57024;BME280;42916;54.346;18.562;2023-02-28T09:31:25;101981.77;;;0.95;80.54
57024;BME280;42916;54.346;18.562;2023-02-28T09:33:53;101983.89;;;1.00;80.40
57024;BME280;42916;54.346;18.562;2023-02-28T09:36:22;101988.48;;;1.03;79.65
57024;BME280;42916;54.346;18.562;2023-02-28T09:38:49;101982.46;;;1.11;80.15
57024;BME280;42916;54.346;18.562;2023-02-28T09:41:23;101982.04;;;1.17;79.84
57024;BME280;42916;54.346;18.562;2023-02-28T09:43:59;101993.16;;;1.24;79.27
57024;BME280;42916;54.346;18.562;2023-02-28T09:46:35;101989.23;;;1.31;78.05
57024;BME280;42916;54.346;18.562;2023-02-28T09:49:34;101988.06;;;1.36;77.91
57024;BME280;42916;54.346;18.562;2023-02-28T09:52:08;101994.41;;;1.42;77.80
57024;BME280;42916;54.346;18.562;2023-02-28T09:54:36;101993.85;;;1.43;76.03
57024;BME280;42916;54.346;18.562;2023-02-28T09:57:08;101993.95;;;1.42;75.01
57024;BME280;42916;54.346;18.562;2023-02-28T10:00:02;101987.40;;;1.44;75.97
57024;BME280;42916;54.346;18.562;2023-02-28T10:02:54;101980.85;;;1.45;74.64
57024;BME280;42916;54.346;18.562;2023-02-28T10:05:29;101973.50;;;1.47;73.78
57024;BME280;42916;54.346;18.562;2023-02-28T10:08:15;101968.83;;;1.50;74.19
57024;BME280;42916;54.346;18.562;2023-02-28T10:10:49;101980.51;;;1.61;75.14
57024;BME280;42916;54.346;18.562;2023-02-28T10:15:54;101973.60;;;1.76;74.61
57024;BME280;42916;54.346;18.562;2023-02-28T10:18:27;101966.02;;;1.83;74.66
57024;BME280;42916;54.346;18.562;2023-02-28T10:20:58;101963.85;;;1.90;74.72
57024;BME280;42916;54.346;18.562;2023-02-28T10:23:28;101966.34;;;1.97;74.54
57024;BME280;42916;54.346;18.562;2023-02-28T10:26:09;101968.76;;;2.00;74.38
57024;BME280;42916;54.346;18.562;2023-02-28T10:28:37;101959.30;;;2.05;74.51
57024;BME280;42916;54.346;18.562;2023-02-28T10:31:04;101956.67;;;2.11;74.19
57024;BME280;42916;54.346;18.562;2023-02-28T10:33:34;101960.03;;;2.16;73.10
57024;BME280;42916;54.346;18.562;2023-02-28T10:36:03;101959.46;;;2.14;72.42
57024;BME280;42916;54.346;18.562;2023-02-28T10:38:34;101954.52;;;2.15;72.17
57024;BME280;42916;54.346;18.562;2023-02-28T10:41:10;101956.67;;;2.20;71.47
57024;BME280;42916;54.346;18.562;2023-02-28T10:43:39;101954.23;;;2.25;71.98
57024;BME280;42916;54.346;18.562;2023-02-28T10:48:38;101952.23;;;2.47;72.92
57024;BME280;42916;54.346;18.562;2023-02-28T10:51:15;101957.10;;;2.58;73.09
57024;BME280;42916;54.346;18.562;2023-02-28T10:59:20;101962.60;;;2.82;71.95
57024;BME280;42916;54.346;18.562;2023-02-28T11:01:49;101965.46;;;2.95;72.00
57024;BME280;42916;54.346;18.562;2023-02-28T11:04:39;101964.77;;;3.02;71.81
57024;BME280;42916;54.346;18.562;2023-02-28T11:07:18;101965.01;;;3.06;70.24
57024;BME280;42916;54.346;18.562;2023-02-28T11:09:49;101960.97;;;3.05;69.64
57024;BME280;42916;54.346;18.562;2023-02-28T11:12:26;101956.84;;;3.06;69.02
57024;BME280;42916;54.346;18.562;2023-02-28T11:14:57;101946.80;;;3.07;68.78
57024;BME280;42916;54.346;18.562;2023-02-28T11:17:30;101944.11;;;3.11;67.96
57024;BME280;42916;54.346;18.562;2023-02-28T11:20:01;101941.31;;;3.12;67.62
57024;BME280;42916;54.346;18.562;2023-02-28T11:22:32;101943.73;;;3.17;68.27
57024;BME280;42916;54.346;18.562;2023-02-28T11:25:09;101943.02;;;3.22;66.99
57024;BME280;42916;54.346;18.562;2023-02-28T11:30:05;101932.19;;;3.41;67.66
57024;BME280;42916;54.346;18.562;2023-02-28T11:32:49;101932.77;;;3.50;66.59
57024;BME280;42916;54.346;18.562;2023-02-28T11:35:38;101933.25;;;3.49;63.24
57024;BME280;42916;54.346;18.562;2023-02-28T11:38:12;101929.67;;;3.57;65.44
57024;BME280;42916;54.346;18.562;2023-02-28T11:49:22;101907.23;;;3.71;62.62
57024;BME280;42916;54.346;18.562;2023-02-28T12:03:21;101889.02;;;4.20;58.73
57024;BME280;42916;54.346;18.562;2023-02-28T12:06:08;101883.55;;;4.28;59.79
57024;BME280;42916;54.346;18.562;2023-02-28T12:08:51;101881.29;;;4.52;59.08
57024;BME280;42916;54.346;18.562;2023-02-28T12:16:55;101878.13;;;4.90;58.74
57024;BME280;42916;54.346;18.562;2023-02-28T12:19:44;101877.98;;;4.98;56.56
57024;BME280;42916;54.346;18.562;2023-02-28T12:27:40;101874.62;;;5.29;56.35
57024;BME280;42916;54.346;18.562;2023-02-28T12:30:24;101873.61;;;5.26;55.78
57024;BME280;42916;54.346;18.562;2023-02-28T12:33:06;101872.70;;;5.35;56.30
57024;BME280;42916;54.346;18.562;2023-02-28T12:35:48;101864.94;;;5.51;55.96
57024;BME280;42916;54.346;18.562;2023-02-28T12:38:27;101869.30;;;5.54;55.49
57024;BME280;42916;54.346;18.562;2023-02-28T12:41:10;101864.72;;;5.71;57.04
57024;BME280;42916;54.346;18.562;2023-02-28T12:43:49;101874.23;;;5.92;56.33
57024;BME280;42916;54.346;18.562;2023-02-28T12:46:32;101865.00;;;6.00;55.84
57024;BME280;42916;54.346;18.562;2023-02-28T12:49:12;101863.09;;;6.21;56.43
57024;BME280;42916;54.346;18.562;2023-02-28T12:51:43;101856.36;;;6.49;56.33
57024;BME280;42916;54.346;18.562;2023-02-28T12:54:32;101852.62;;;6.71;55.33
57024;BME280;42916;54.346;18.562;2023-02-28T13:00:18;101855.22;;;6.47;53.20
57024;BME280;42916;54.346;18.562;2023-02-28T13:02:56;101851.71;;;6.63;54.34
57024;BME280;42916;54.346;18.562;2023-02-28T13:08:15;101857.50;;;7.00;53.45
57024;BME280;42916;54.346;18.562;2023-02-28T13:10:46;101868.31;;;7.09;51.37
57024;BME280;42916;54.346;18.562;2023-02-28T13:13:19;101860.47;;;6.97;50.55
57024;BME280;42916;54.346;18.562;2023-02-28T13:21:04;101846.75;;;6.99;50.46
57024;BME280;42916;54.346;18.562;2023-02-28T13:26:17;101847.37;;;7.09;49.69
57024;BME280;42916;54.346;18.562;2023-02-28T13:31:19;101842.03;;;7.14;49.29
57024;BME280;42916;54.346;18.562;2023-02-28T13:38:45;101839.86;;;7.53;48.26
57024;BME280;42916;54.346;18.562;2023-02-28T13:44:16;101831.13;;;7.82;48.84
57024;BME280;42916;54.346;18.562;2023-02-28T13:54:54;101817.14;;;8.35;48.27
57024;BME280;42916;54.346;18.562;2023-02-28T13:57:58;101818.92;;;8.62;49.08
57024;BME280;42916;54.346;18.562;2023-02-28T14:09:00;101810.64;;;9.24;46.87
57024;BME280;42916;54.346;18.562;2023-02-28T14:11:36;101806.06;;;9.24;45.80
57024;BME280;42916;54.346;18.562;2023-02-28T14:14:05;101802.37;;;9.09;46.02
57024;BME280;42916;54.346;18.562;2023-02-28T14:16:44;101802.95;;;9.12;46.56
57024;BME280;42916;54.346;18.562;2023-02-28T14:19:27;101801.46;;;9.22;47.41
57024;BME280;42916;54.346;18.562;2023-02-28T14:27:57;101786.70;;;9.10;45.32
57024;BME280;42916;54.346;18.562;2023-02-28T14:36:10;101785.82;;;8.81;46.17
57024;BME280;42916;54.346;18.562;2023-02-28T14:38:43;101785.03;;;8.21;46.57
57024;BME280;42916;54.346;18.562;2023-02-28T14:41:18;101787.26;;;7.72;47.34
57024;BME280;42916;54.346;18.562;2023-02-28T14:44:00;101786.66;;;7.28;47.76
57024;BME280;42916;54.346;18.562;2023-02-28T14:46:38;101790.18;;;6.88;48.44
57024;BME280;42916;54.346;18.562;2023-02-28T14:49:13;101787.55;;;6.56;49.33
57024;BME280;42916;54.346;18.562;2023-02-28T14:51:42;101791.45;;;6.25;50.09
57024;BME280;42916;54.346;18.562;2023-02-28T14:54:14;101786.61;;;6.00;50.67
57024;BME280;42916;54.346;18.562;2023-02-28T14:56:42;101785.45;;;5.70;51.45
57024;BME280;42916;54.346;18.562;2023-02-28T14:59:29;101785.39;;;5.43;52.00